Time;durP1;ratioP1;P1;durP2;ratioP2;P2;SDS_P1;SDS_P2;PMS_P1;PMS_P2;Temp;Humidity;BMP_temperature;BMP_pressure;BME280_temperature;BME280_humidity;BME280_pressure;Samples;Min_cycle;Max_cycle;Signal;HPM_P1;HPM_P2
2024/02/13 00:00:01;;;;;;;11.30;7.80;;;;;;;;;;4896274;29;20201;-80
2024/02/13 00:02:28;;;;;;;12.07;8.30;;;;;;;;;;4896190;29;20622;-80
2024/02/13 00:04:56;;;;;;;12.50;8.43;;;;;;;;;;4896830;29;20656;-78
2024/02/13 00:07:24;;;;;;;11.70;7.37;;;;;;;;;;4896036;29;20606;-81
2024/02/13 00:09:52;;;;;;;11.37;7.40;;;;;;;;;;4896179;29;20615;-80
2024/02/13 00:12:19;;;;;;;11.90;7.70;;;;;;;;;;4896074;29;20229;-80
2024/02/13 00:14:46;;;;;;;12.47;7.60;;;;;;;;;;4895957;29;20559;-80
2024/02/13 00:17:13;;;;;;;11.60;7.10;;;;;;;;;;4896147;29;20671;-79
2024/02/13 00:19:42;;;;;;;10.37;6.47;;;;;;;;;;4895759;29;20201;-79
2024/02/13 00:22:11;;;;;;;12.00;7.70;;;;;;;;;;4896390;29;20628;-80
2024/02/13 00:24:40;;;;;;;13.07;6.47;;;;;;;;;;4895372;29;20651;-80
2024/02/13 00:27:07;;;;;;;11.30;7.27;;;;;;;;;;4896102;29;20297;-80
2024/02/13 00:29:34;;;;;;;8.87;6.57;;;;;;;;;;4896502;29;20261;-79
2024/02/13 00:32:02;;;;;;;8.03;6.23;;;;;;;;;;4899551;29;20288;-79
2024/02/13 00:34:29;;;;;;;9.17;6.10;;;;;;;;;;4900051;29;20204;-80
2024/02/13 00:37:00;;;;;;;10.23;6.30;;;;;;;;;;4899940;29;20204;-80
2024/02/13 00:39:28;;;;;;;9.00;5.83;;;;;;;;;;4899326;29;20710;-80
2024/02/13 00:41:56;;;;;;;9.77;6.07;;;;;;;;;;4899592;29;20579;-79
2024/02/13 00:44:24;;;;;;;9.57;6.07;;;;;;;;;;4900065;29;20280;-80
2024/02/13 00:46:52;;;;;;;9.10;6.07;;;;;;;;;;4899547;29;20205;-80
2024/02/13 00:49:19;;;;;;;9.07;5.77;;;;;;;;;;4899637;29;20205;-80
2024/02/13 00:51:47;;;;;;;10.47;5.87;;;;;;;;;;4899603;29;20325;-79
2024/02/13 00:54:14;;;;;;;8.00;5.60;;;;;;;;;;4899560;29;20197;-81
2024/02/13 00:56:42;;;;;;;9.17;5.67;;;;;;;;;;4899706;29;20209;-80
2024/02/13 00:59:12;;;;;;;10.13;6.13;;;;;;;;;;4899070;29;20205;-79
2024/02/13 01:01:40;;;;;;;9.47;5.33;;;;;;;;;;4899332;29;20232;-80
2024/02/13 01:04:07;;;;;;;8.17;5.30;;;;;;;;;;4899824;29;20763;-80
2024/02/13 01:06:35;;;;;;;10.03;5.30;;;;;;;;;;4898464;29;20673;-80
2024/02/13 01:09:05;;;;;;;8.20;5.57;;;;;;;;;;4899000;29;20241;-79
2024/02/13 01:11:32;;;;;;;7.43;5.57;;;;;;;;;;4899362;29;20298;-80
2024/02/13 01:14:01;;;;;;;9.33;5.40;;;;;;;;;;4898694;29;20705;-80
2024/02/13 01:16:29;;;;;;;6.53;5.20;;;;;;;;;;4899386;29;20762;-81
2024/02/13 01:18:57;;;;;;;7.07;5.43;;;;;;;;;;4899215;29;20224;-80
2024/02/13 01:21:25;;;;;;;8.20;5.57;;;;;;;;;;4898562;29;20204;-80
2024/02/13 01:23:52;;;;;;;7.83;5.67;;;;;;;;;;4901400;29;20247;-80
2024/02/13 01:26:19;;;;;;;12.20;5.87;;;;;;;;;;4917985;29;20287;-80
2024/02/13 01:28:46;;;;;;;8.70;5.97;;;;;;;;;;4917710;29;20200;-80
2024/02/13 01:31:14;;;;;;;9.40;5.73;;;;;;;;;;4917300;29;20232;-81
2024/02/13 01:33:42;;;;;;;8.83;5.33;;;;;;;;;;4917520;29;20201;-80
2024/02/13 01:36:09;;;;;;;10.63;5.60;;;;;;;;;;4917775;29;20229;-80
2024/02/13 01:38:37;;;;;;;7.80;5.53;;;;;;;;;;4917354;29;20236;-79
2024/02/13 01:41:04;;;;;;;8.83;5.30;;;;;;;;;;4917278;29;20727;-80
2024/02/13 01:43:32;;;;;;;8.37;5.37;;;;;;;;;;4917418;29;20211;-80
2024/02/13 01:46:02;;;;;;;10.43;5.53;;;;;;;;;;4917267;29;20291;-79
2024/02/13 01:48:29;;;;;;;8.37;5.90;;;;;;;;;;4917494;29;20244;-80
2024/02/13 01:51:00;;;;;;;7.87;5.63;;;;;;;;;;4916720;29;20705;-79
2024/02/13 01:53:28;;;;;;;7.97;5.60;;;;;;;;;;4917481;29;20247;-80
2024/02/13 01:55:56;;;;;;;8.33;5.50;;;;;;;;;;4917074;29;20634;-79
2024/02/13 01:58:23;;;;;;;10.03;5.50;;;;;;;;;;4917710;29;20565;-79
2024/02/13 02:00:58;;;;;;;8.20;5.50;;;;;;;;;;4917258;29;20212;-80
2024/02/13 02:03:26;;;;;;;11.23;5.77;;;;;;;;;;4913653;29;20199;-80
2024/02/13 02:05:53;;;;;;;10.70;5.77;;;;;;;;;;4897945;29;20212;-80
2024/02/13 02:08:22;;;;;;;6.93;5.10;;;;;;;;;;4897990;29;20232;-80
2024/02/13 02:10:49;;;;;;;8.47;5.43;;;;;;;;;;4898220;29;20212;-80
2024/02/13 02:13:16;;;;;;;7.40;5.20;;;;;;;;;;4898151;29;20241;-79
2024/02/13 02:15:43;;;;;;;7.87;4.90;;;;;;;;;;4898063;29;20282;-79
2024/02/13 02:18:10;;;;;;;9.20;5.43;;;;;;;;;;4897702;29;20920;-80
2024/02/13 02:20:39;;;;;;;6.50;5.20;;;;;;;;;;4897464;29;20203;-80
2024/02/13 02:23:07;;;;;;;9.03;5.10;;;;;;;;;;4898525;29;20217;-80
2024/02/13 02:25:35;;;;;;;7.37;5.17;;;;;;;;;;4897633;29;20240;-80
2024/02/13 02:28:03;;;;;;;7.73;4.90;;;;;;;;;;4893093;29;20205;-81
2024/02/13 02:30:30;;;;;;;7.33;4.80;;;;;;;;;;4889457;29;20217;-80
2024/02/13 02:32:57;;;;;;;9.27;5.17;;;;;;;;;;4897810;29;20268;-79
2024/02/13 02:35:24;;;;;;;7.63;4.60;;;;;;;;;;4897159;29;20232;-79
2024/02/13 02:37:52;;;;;;;10.50;4.83;;;;;;;;;;4897522;29;20209;-79
2024/02/13 02:40:19;;;;;;;8.87;4.67;;;;;;;;;;4897842;29;20238;-80
2024/02/13 02:42:49;;;;;;;6.43;4.10;;;;;;;;;;4897608;29;20229;-80
2024/02/13 02:45:16;;;;;;;7.77;3.90;;;;;;;;;;4897364;29;20574;-80
2024/02/13 02:47:43;;;;;;;6.27;3.67;;;;;;;;;;4897679;29;20284;-80
2024/02/13 02:50:11;;;;;;;6.50;3.73;;;;;;;;;;4897220;29;20197;-79
2024/02/13 02:52:38;;;;;;;6.40;3.40;;;;;;;;;;4896445;29;20942;-80
2024/02/13 02:55:06;;;;;;;7.83;3.30;;;;;;;;;;4897552;29;20205;-80
2024/02/13 02:57:34;;;;;;;6.17;3.27;;;;;;;;;;4897476;29;20205;-80
2024/02/13 03:00:06;;;;;;;7.27;3.30;;;;;;;;;;4897185;29;20856;-80
2024/02/13 03:02:35;;;;;;;4.40;2.80;;;;;;;;;;4897069;29;20581;-79
2024/02/13 03:05:03;;;;;;;6.70;2.97;;;;;;;;;;4897098;29;20291;-79
2024/02/13 03:07:30;;;;;;;7.03;2.50;;;;;;;;;;4897022;29;20671;-80
2024/02/13 03:09:58;;;;;;;4.23;2.63;;;;;;;;;;4897080;29;20636;-78
2024/02/13 03:12:25;;;;;;;4.43;2.50;;;;;;;;;;4897096;29;20241;-80
2024/02/13 03:14:52;;;;;;;4.33;2.27;;;;;;;;;;4897393;29;20292;-81
2024/02/13 03:17:22;;;;;;;5.43;2.90;;;;;;;;;;4896700;29;20663;-80
2024/02/13 03:19:49;;;;;;;8.60;2.73;;;;;;;;;;4897009;29;20205;-80
2024/02/13 03:22:17;;;;;;;7.37;2.63;;;;;;;;;;4896852;29;20201;-79
2024/02/13 03:24:44;;;;;;;5.93;2.53;;;;;;;;;;4906361;29;20244;-79
2024/02/13 03:27:11;;;;;;;5.00;2.67;;;;;;;;;;4915650;29;20197;-79
2024/02/13 03:29:38;;;;;;;6.10;3.13;;;;;;;;;;4915421;29;20236;-79
2024/02/13 03:32:06;;;;;;;9.63;2.60;;;;;;;;;;4915401;29;20327;-79
2024/02/13 03:34:34;;;;;;;5.47;2.77;;;;;;;;;;4915819;29;20660;-79
2024/02/13 03:37:02;;;;;;;5.07;3.00;;;;;;;;;;4915423;29;20200;-78
2024/02/13 03:39:28;;;;;;;7.00;2.87;;;;;;;;;;4915814;29;20211;-80
2024/02/13 03:41:55;;;;;;;7.77;3.27;;;;;;;;;;4915624;29;20210;-80
2024/02/13 03:44:25;;;;;;;5.53;2.67;;;;;;;;;;4915308;29;20745;-79
2024/02/13 03:46:53;;;;;;;6.13;2.90;;;;;;;;;;4914852;29;20196;-80
2024/02/13 03:49:20;;;;;;;7.53;3.30;;;;;;;;;;4915732;29;20208;-79
2024/02/13 03:51:49;;;;;;;5.70;3.00;;;;;;;;;;4915252;29;20224;-79
2024/02/13 03:54:16;;;;;;;6.17;3.27;;;;;;;;;;4915353;29;20248;-80
2024/02/13 03:56:43;;;;;;;7.40;3.33;;;;;;;;;;4915307;29;20264;-80
2024/02/13 03:59:13;;;;;;;8.60;3.63;;;;;;;;;;4915103;29;20259;-79
2024/02/13 04:01:40;;;;;;;6.73;3.70;;;;;;;;;;4914891;29;20204;-80
2024/02/13 04:04:08;;;;;;;9.43;4.07;;;;;;;;;;4915502;29;20200;-79
2024/02/13 04:06:35;;;;;;;8.73;4.17;;;;;;;;;;4909311;29;20297;-80
2024/02/13 04:09:06;;;;;;;6.83;3.80;;;;;;;;;;4896354;29;20284;-79
2024/02/13 04:11:35;;;;;;;8.53;3.83;;;;;;;;;;4896237;29;20225;-80
2024/02/13 04:14:02;;;;;;;7.07;4.00;;;;;;;;;;4896531;29;20285;-78
2024/02/13 04:16:30;;;;;;;10.57;4.83;;;;;;;;;;4895479;29;20213;-79
2024/02/13 04:18:58;;;;;;;9.30;4.37;;;;;;;;;;4896612;29;20606;-80
2024/02/13 04:21:25;;;;;;;9.20;4.47;;;;;;;;;;4895844;29;20208;-80
2024/02/13 04:23:53;;;;;;;7.90;4.27;;;;;;;;;;4896027;29;20328;-79
2024/02/13 04:26:22;;;;;;;10.40;4.40;;;;;;;;;;4895798;29;20197;-80
2024/02/13 04:28:49;;;;;;;7.43;4.30;;;;;;;;;;4896309;29;20201;-79
2024/02/13 04:31:16;;;;;;;8.43;4.27;;;;;;;;;;4895830;29;20229;-79
2024/02/13 04:33:44;;;;;;;7.77;4.70;;;;;;;;;;4896031;29;20329;-79
2024/02/13 04:36:11;;;;;;;11.60;4.47;;;;;;;;;;4896342;29;20211;-80
2024/02/13 04:38:38;;;;;;;8.47;4.53;;;;;;;;;;4895837;29;20324;-79
2024/02/13 04:41:05;;;;;;;6.17;4.73;;;;;;;;;;4896214;29;20296;-79
2024/02/13 04:43:34;;;;;;;9.97;4.80;;;;;;;;;;4896121;29;20232;-80
2024/02/13 04:46:02;;;;;;;8.13;4.80;;;;;;;;;;4895353;29;20212;-80
2024/02/13 04:48:30;;;;;;;11.07;4.80;;;;;;;;;;4896018;29;20206;-80
2024/02/13 04:50:57;;;;;;;8.73;5.43;;;;;;;;;;4895425;29;20202;-80
2024/02/13 04:53:25;;;;;;;9.97;5.57;;;;;;;;;;4896002;29;20694;-80
2024/02/13 04:55:55;;;;;;;9.60;5.53;;;;;;;;;;4895586;29;20288;-79
2024/02/13 04:58:23;;;;;;;10.83;5.53;;;;;;;;;;4895891;29;20207;-79
2024/02/13 05:01:01;;;;;;;11.17;5.60;;;;;;;;;;4895742;29;20264;-80
2024/02/13 05:03:39;;;;;;;9.40;5.63;;;;;;;;;;4895601;29;20213;-80
2024/02/13 05:08:53;;;;;;;10.57;6.07;;;;;;;;;;4895707;29;20212;-80
2024/02/13 05:11:20;;;;;;;8.90;5.73;;;;;;;;;;4895680;29;20288;-79
2024/02/13 05:13:47;;;;;;;11.00;6.53;;;;;;;;;;4895601;29;20239;-81
2024/02/13 05:16:17;;;;;;;8.20;6.50;;;;;;;;;;4896671;29;20292;-80
2024/02/13 05:18:45;;;;;;;14.37;6.50;;;;;;;;;;4899228;29;20201;-80
2024/02/13 05:21:13;;;;;;;12.03;6.10;;;;;;;;;;4898844;29;20225;-80
2024/02/13 05:23:41;;;;;;;11.50;6.27;;;;;;;;;;4900084;29;20203;-80
2024/02/13 05:26:08;;;;;;;10.60;6.20;;;;;;;;;;4917791;29;20686;-80
2024/02/13 05:28:37;;;;;;;11.47;7.10;;;;;;;;;;4917380;29;20211;-80
2024/02/13 05:31:05;;;;;;;10.70;6.73;;;;;;;;;;4917949;29;20207;-80
2024/02/13 05:33:34;;;;;;;9.63;6.57;;;;;;;;;;4917265;29;20232;-80
2024/02/13 05:36:02;;;;;;;11.87;6.87;;;;;;;;;;4917730;29;20197;-80
2024/02/13 05:38:29;;;;;;;9.87;6.10;;;;;;;;;;4917667;29;20215;-80
2024/02/13 05:40:56;;;;;;;9.93;6.03;;;;;;;;;;4917562;29;20233;-80
2024/02/13 05:43:23;;;;;;;11.50;6.77;;;;;;;;;;4917079;29;20295;-79
2024/02/13 05:45:50;;;;;;;9.03;5.90;;;;;;;;;;4917636;29;20256;-80
2024/02/13 05:48:18;;;;;;;7.80;5.70;;;;;;;;;;4916857;29;20291;-79
2024/02/13 05:50:48;;;;;;;9.63;5.43;;;;;;;;;;4917376;29;20236;-80
2024/02/13 05:53:16;;;;;;;8.73;5.17;;;;;;;;;;4917111;29;20714;-80
2024/02/13 05:55:43;;;;;;;7.73;5.00;;;;;;;;;;4917408;29;20203;-80
2024/02/13 05:58:10;;;;;;;7.90;5.30;;;;;;;;;;4917113;29;20287;-78
2024/02/13 06:00:38;;;;;;;8.10;5.83;;;;;;;;;;4917518;29;20213;-80
2024/02/13 06:03:07;;;;;;;10.40;6.40;;;;;;;;;;4917385;29;20232;-80
2024/02/13 06:05:35;;;;;;;10.33;6.20;;;;;;;;;;4917256;29;20248;-80
2024/02/13 06:08:06;;;;;;;10.90;5.93;;;;;;;;;;4912227;29;20279;-82
2024/02/13 06:10:35;;;;;;;8.50;6.20;;;;;;;;;;4897370;29;20201;-82
2024/02/13 06:13:03;;;;;;;11.00;6.40;;;;;;;;;;4897127;29;20277;-82
2024/02/13 06:15:30;;;;;;;9.43;6.40;;;;;;;;;;4898100;29;20201;-82
2024/02/13 06:17:57;;;;;;;9.47;6.73;;;;;;;;;;4897718;29;20296;-81
2024/02/13 06:20:24;;;;;;;10.57;6.60;;;;;;;;;;4898022;29;20205;-81
2024/02/13 06:22:51;;;;;;;8.83;6.70;;;;;;;;;;4898282;29;20283;-81
2024/02/13 06:25:20;;;;;;;9.43;6.57;;;;;;;;;;4897652;29;20726;-81
2024/02/13 06:27:48;;;;;;;8.87;6.07;;;;;;;;;;4896537;29;20243;-80
2024/02/13 06:30:15;;;;;;;11.53;6.77;;;;;;;;;;4898288;29;20234;-82
2024/02/13 06:32:42;;;;;;;11.37;6.30;;;;;;;;;;4897756;29;20662;-82
2024/02/13 06:35:10;;;;;;;11.10;6.63;;;;;;;;;;4897566;29;20252;-82
2024/02/13 06:37:39;;;;;;;8.47;6.43;;;;;;;;;;4897385;29;20293;-81
2024/02/13 06:40:07;;;;;;;12.73;6.53;;;;;;;;;;4896147;29;20256;-81
2024/02/13 06:42:36;;;;;;;10.00;5.97;;;;;;;;;;4894840;29;20273;-80
2024/02/13 06:45:03;;;;;;;10.13;6.50;;;;;;;;;;4894566;29;20212;-82
2024/02/13 06:47:30;;;;;;;9.83;5.60;;;;;;;;;;4896366;29;20284;-79
2024/02/13 06:50:00;;;;;;;8.97;5.97;;;;;;;;;;4897590;29;20288;-78
2024/02/13 06:52:27;;;;;;;8.10;5.83;;;;;;;;;;4897672;29;20244;-79
2024/02/13 06:54:54;;;;;;;7.73;5.33;;;;;;;;;;4897019;29;20683;-78
2024/02/13 06:57:21;;;;;;;8.00;5.30;;;;;;;;;;4897131;29;20286;-79
2024/02/13 06:59:50;;;;;;;9.23;5.33;;;;;;;;;;4897184;29;20292;-79
2024/02/13 07:02:17;;;;;;;10.50;5.20;;;;;;;;;;4897166;29;20204;-78
2024/02/13 07:04:44;;;;;;;11.20;5.40;;;;;;;;;;4897273;29;20211;-79
2024/02/13 07:07:12;;;;;;;9.07;4.83;;;;;;;;;;4897283;29;20295;-78
2024/02/13 07:09:39;;;;;;;7.57;4.70;;;;;;;;;;4897065;29;20292;-78
2024/02/13 07:12:06;;;;;;;8.63;4.97;;;;;;;;;;4897121;29;20237;-78
2024/02/13 07:14:35;;;;;;;8.93;5.10;;;;;;;;;;4897273;29;20261;-78
2024/02/13 07:17:03;;;;;;;10.03;4.73;;;;;;;;;;4897421;29;20281;-78
2024/02/13 07:19:30;;;;;;;7.03;4.33;;;;;;;;;;4897171;29;20201;-78
2024/02/13 07:21:57;;;;;;;7.97;4.37;;;;;;;;;;4897100;29;20201;-79
2024/02/13 07:24:25;;;;;;;9.83;4.43;;;;;;;;;;4896611;29;20264;-79
2024/02/13 07:26:52;;;;;;;7.87;4.53;;;;;;;;;;4897007;29;20292;-79
2024/02/13 07:29:19;;;;;;;6.73;4.27;;;;;;;;;;4896797;29;20286;-79
2024/02/13 07:31:46;;;;;;;8.67;4.20;;;;;;;;;;4896793;29;20296;-78
2024/02/13 07:34:15;;;;;;;8.30;4.20;;;;;;;;;;4897336;29;20243;-80
2024/02/13 07:36:42;;;;;;;7.53;3.70;;;;;;;;;;4896591;29;20746;-79
2024/02/13 07:39:09;;;;;;;4.77;3.50;;;;;;;;;;4896106;29;20201;-79
2024/02/13 07:41:37;;;;;;;5.87;3.53;;;;;;;;;;4896987;29;20212;-79
2024/02/13 07:44:05;;;;;;;6.77;3.20;;;;;;;;;;4896721;29;20209;-79
2024/02/13 07:46:32;;;;;;;8.10;3.30;;;;;;;;;;4896600;29;20205;-79
2024/02/13 07:48:59;;;;;;;6.17;3.17;;;;;;;;;;4896589;29;20233;-79
2024/02/13 07:51:28;;;;;;;8.40;2.83;;;;;;;;;;4896923;29;20244;-79
2024/02/13 07:53:55;;;;;;;6.57;2.90;;;;;;;;;;4896153;29;20256;-79
2024/02/13 07:56:28;;;;;;;6.13;2.60;;;;;;;;;;4896744;29;20233;-79
2024/02/13 07:58:57;;;;;;;6.57;2.43;;;;;;;;;;4896416;29;20205;-78
2024/02/13 08:01:25;;;;;;;5.07;2.50;;;;;;;;;;4896631;29;20223;-80
2024/02/13 08:03:52;;;;;;;3.77;2.40;;;;;;;;;;4896351;29;20751;-78
2024/02/13 08:06:19;;;;;;;7.03;2.30;;;;;;;;;;4896756;29;20303;-79
2024/02/13 08:08:49;;;;;;;7.27;2.10;;;;;;;;;;4896075;29;20295;-78
2024/02/13 08:11:17;;;;;;;3.37;2.00;;;;;;;;;;4896405;29;20245;-79
2024/02/13 08:13:44;;;;;;;4.97;2.13;;;;;;;;;;4896051;29;20235;-79
2024/02/13 08:16:13;;;;;;;5.67;2.10;;;;;;;;;;4896353;29;20296;-79
2024/02/13 08:18:41;;;;;;;4.50;2.50;;;;;;;;;;4896454;29;20205;-78
2024/02/13 08:21:08;;;;;;;7.27;2.40;;;;;;;;;;4896212;29;20215;-79
2024/02/13 08:23:35;;;;;;;8.10;2.30;;;;;;;;;;4896885;29;20661;-79
2024/02/13 08:26:04;;;;;;;4.30;2.00;;;;;;;;;;4915119;29;20240;-79
2024/02/13 08:28:31;;;;;;;5.30;2.10;;;;;;;;;;4914736;29;20682;-79
2024/02/13 08:30:58;;;;;;;7.43;2.03;;;;;;;;;;4915367;29;20207;-79
2024/02/13 08:33:25;;;;;;;3.87;1.83;;;;;;;;;;4914925;29;20232;-79
2024/02/13 08:35:55;;;;;;;6.07;2.10;;;;;;;;;;4915127;29;20215;-79
2024/02/13 08:38:22;;;;;;;3.90;2.17;;;;;;;;;;4914781;29;20674;-79
2024/02/13 08:40:49;;;;;;;5.10;1.80;;;;;;;;;;4915553;29;20291;-79
2024/02/13 08:43:17;;;;;;;5.27;2.40;;;;;;;;;;4914980;29;20291;-79
2024/02/13 08:45:45;;;;;;;4.83;2.00;;;;;;;;;;4915106;29;20238;-79
2024/02/13 08:48:13;;;;;;;5.53;2.37;;;;;;;;;;4914962;29;20663;-78
2024/02/13 08:50:41;;;;;;;5.77;2.37;;;;;;;;;;4914805;29;20211;-79
2024/02/13 08:53:09;;;;;;;4.67;2.43;;;;;;;;;;4918957;29;20618;-79
2024/02/13 08:55:36;;;;;;;7.60;2.30;;;;;;;;;;4918715;29;20209;-79
2024/02/13 08:58:04;;;;;;;5.43;2.20;;;;;;;;;;4918267;29;20205;-78
2024/02/13 09:00:32;;;;;;;4.67;2.00;;;;;;;;;;4918407;29;20678;-78
2024/02/13 09:02:59;;;;;;;5.87;2.10;;;;;;;;;;4918677;29;20224;-79
2024/02/13 09:05:27;;;;;;;7.13;2.03;;;;;;;;;;4917999;29;20307;-78
2024/02/13 09:07:54;;;;;;;4.40;2.30;;;;;;;;;;4918329;29;20201;-79
2024/02/13 09:10:21;;;;;;;5.93;2.40;;;;;;;;;;4901401;29;20208;-78
2024/02/13 09:12:48;;;;;;;3.97;2.20;;;;;;;;;;4899410;29;20249;-79
2024/02/13 09:15:15;;;;;;;4.83;1.83;;;;;;;;;;4899411;29;20294;-79
2024/02/13 09:17:44;;;;;;;6.70;2.10;;;;;;;;;;4899399;29;20236;-79
2024/02/13 09:20:14;;;;;;;4.17;2.33;;;;;;;;;;4899108;29;20284;-78
2024/02/13 09:22:44;;;;;;;4.13;1.97;;;;;;;;;;4899180;29;20288;-78
2024/02/13 09:25:12;;;;;;;6.60;2.10;;;;;;;;;;4899109;29;20323;-78
2024/02/13 09:27:39;;;;;;;3.70;1.90;;;;;;;;;;4899373;29;20208;-79
2024/02/13 09:30:10;;;;;;;4.47;1.80;;;;;;;;;;4899049;29;20209;-79
2024/02/13 09:32:38;;;;;;;5.00;2.20;;;;;;;;;;4898936;29;20663;-79
2024/02/13 09:35:07;;;;;;;5.13;2.13;;;;;;;;;;4898257;29;20683;-79
2024/02/13 09:37:39;;;;;;;4.97;2.20;;;;;;;;;;4899170;29;20264;-78
2024/02/13 09:40:11;;;;;;;5.00;2.33;;;;;;;;;;4898974;29;20201;-79
2024/02/13 09:42:40;;;;;;;5.90;2.40;;;;;;;;;;4898812;29;20209;-80
2024/02/13 09:45:07;;;;;;;4.90;2.20;;;;;;;;;;4899089;29;20309;-79
2024/02/13 09:47:35;;;;;;;5.33;2.27;;;;;;;;;;4898771;29;20233;-79
2024/02/13 09:50:02;;;;;;;4.77;2.40;;;;;;;;;;4898487;29;20297;-78
2024/02/13 09:52:33;;;;;;;6.90;2.40;;;;;;;;;;4898668;29;20201;-78
2024/02/13 09:55:01;;;;;;;5.20;2.87;;;;;;;;;;4898715;29;20323;-79
2024/02/13 09:57:28;;;;;;;4.83;2.57;;;;;;;;;;4899098;29;20208;-79
2024/02/13 09:59:57;;;;;;;6.47;2.37;;;;;;;;;;4898783;29;20209;-79
2024/02/13 10:02:27;;;;;;;4.57;2.40;;;;;;;;;;4898341;29;20201;-78
2024/02/13 10:04:55;;;;;;;5.30;2.70;;;;;;;;;;4898286;29;20198;-79
2024/02/13 10:07:23;;;;;;;7.07;2.80;;;;;;;;;;4898526;29;20241;-79
2024/02/13 10:09:52;;;;;;;5.90;2.90;;;;;;;;;;4898882;29;20232;-79
2024/02/13 10:12:19;;;;;;;5.13;2.67;;;;;;;;;;4898532;29;20212;-78
2024/02/13 10:14:57;;;;;;;4.00;2.37;;;;;;;;;;4898326;29;20268;-79
2024/02/13 10:17:25;;;;;;;6.27;2.70;;;;;;;;;;4898288;29;20200;-79
2024/02/13 10:19:53;;;;;;;5.10;2.83;;;;;;;;;;4898709;29;20611;-79
2024/02/13 10:22:20;;;;;;;6.00;2.60;;;;;;;;;;4898676;29;20201;-79
2024/02/13 10:24:48;;;;;;;5.47;2.60;;;;;;;;;;4908244;29;20232;-78
2024/02/13 10:27:18;;;;;;;5.20;2.70;;;;;;;;;;4916984;29;20200;-79
2024/02/13 10:29:46;;;;;;;4.90;2.63;;;;;;;;;;4917108;29;20201;-79
2024/02/13 10:32:13;;;;;;;4.70;2.73;;;;;;;;;;4916818;29;20207;-79
2024/02/13 10:34:40;;;;;;;4.57;2.40;;;;;;;;;;4916679;29;20776;-79
2024/02/13 10:37:09;;;;;;;6.33;2.50;;;;;;;;;;4916610;29;20204;-79
2024/02/13 10:39:37;;;;;;;7.20;2.37;;;;;;;;;;4916790;29;20207;-78
2024/02/13 10:42:08;;;;;;;4.57;2.47;;;;;;;;;;4917227;29;20208;-79
2024/02/13 10:44:43;;;;;;;5.27;2.60;;;;;;;;;;4917253;29;20201;-79
2024/02/13 10:47:11;;;;;;;5.17;2.47;;;;;;;;;;4916412;29;20206;-79
2024/02/13 10:49:44;;;;;;;6.97;2.30;;;;;;;;;;4917051;29;20637;-79
2024/02/13 10:52:14;;;;;;;6.63;2.23;;;;;;;;;;4916477;29;20211;-79
2024/02/13 10:54:46;;;;;;;5.57;2.73;;;;;;;;;;4916225;29;20770;-79
2024/02/13 10:57:14;;;;;;;5.20;2.80;;;;;;;;;;4916367;29;20301;-77
2024/02/13 10:59:44;;;;;;;6.73;2.87;;;;;;;;;;4916481;29;20288;-79
2024/02/13 11:02:13;;;;;;;4.40;2.63;;;;;;;;;;4916451;29;20201;-79
2024/02/13 11:04:43;;;;;;;7.13;2.60;;;;;;;;;;4916511;29;20292;-78
2024/02/13 11:07:10;;;;;;;7.73;2.63;;;;;;;;;;4916252;29;20205;-80
2024/02/13 11:09:38;;;;;;;5.10;2.47;;;;;;;;;;4916562;29;20287;-78
2024/02/13 11:12:06;;;;;;;6.63;2.63;;;;;;;;;;4916277;29;20205;-79
2024/02/13 11:14:33;;;;;;;5.40;2.40;;;;;;;;;;4915504;29;20232;-79
2024/02/13 11:17:03;;;;;;;3.30;2.20;;;;;;;;;;4916209;29;20240;-79
2024/02/13 11:19:37;;;;;;;4.47;2.40;;;;;;;;;;4916245;29;20669;-78
2024/02/13 11:22:08;;;;;;;6.57;2.63;;;;;;;;;;4915787;29;20204;-79
2024/02/13 11:24:41;;;;;;;5.10;2.47;;;;;;;;;;4915892;29;20239;-79
2024/02/13 11:27:08;;;;;;;6.37;2.53;;;;;;;;;;4916481;29;20239;-79
2024/02/13 11:29:36;;;;;;;4.70;2.30;;;;;;;;;;4916052;29;20228;-79
2024/02/13 11:32:04;;;;;;;4.47;2.10;;;;;;;;;;4915535;29;20303;-78
2024/02/13 11:34:41;;;;;;;4.70;2.60;;;;;;;;;;4915695;29;20982;-78
2024/02/13 11:37:19;;;;;;;7.07;2.60;;;;;;;;;;4915725;29;21277;-79
2024/02/13 11:39:47;;;;;;;5.77;2.27;;;;;;;;;;4915642;29;20670;-79
2024/02/13 11:42:19;;;;;;;4.20;2.20;;;;;;;;;;4915475;29;20700;-80
2024/02/13 11:44:48;;;;;;;6.07;2.03;;;;;;;;;;4915385;29;20205;-80
2024/02/13 11:47:19;;;;;;;7.63;2.87;;;;;;;;;;4915178;29;20207;-78
2024/02/13 11:49:49;;;;;;;5.03;2.30;;;;;;;;;;4915479;29;20200;-78
2024/02/13 11:52:16;;;;;;;6.60;2.20;;;;;;;;;;4915478;29;20200;-78
2024/02/13 11:54:46;;;;;;;4.93;2.57;;;;;;;;;;4915532;29;20671;-78
2024/02/13 11:57:13;;;;;;;5.87;2.77;;;;;;;;;;4915590;29;20200;-79
2024/02/13 11:59:41;;;;;;;4.60;2.80;;;;;;;;;;4915248;29;20295;-77
2024/02/13 12:02:12;;;;;;;4.67;2.40;;;;;;;;;;4915675;29;20204;-78
2024/02/13 12:04:42;;;;;;;4.50;2.63;;;;;;;;;;4915383;29;20204;-78
2024/02/13 12:07:11;;;;;;;5.77;2.53;;;;;;;;;;4915471;29;20328;-78
2024/02/13 12:09:38;;;;;;;6.20;2.43;;;;;;;;;;4915498;29;20248;-78
2024/02/13 12:12:08;;;;;;;5.43;2.50;;;;;;;;;;4915434;29;20792;-79
2024/02/13 12:14:35;;;;;;;7.03;2.80;;;;;;;;;;4914944;29;20615;-78
2024/02/13 12:17:03;;;;;;;4.30;2.30;;;;;;;;;;4915166;29;20303;-78
2024/02/13 12:19:31;;;;;;;4.93;2.13;;;;;;;;;;4915547;29;20201;-78
2024/02/13 12:22:06;;;;;;;6.73;2.37;;;;;;;;;;4915168;29;20288;-78
2024/02/13 12:24:33;;;;;;;5.27;2.40;;;;;;;;;;4914908;29;20278;-79
2024/02/13 12:27:01;;;;;;;3.87;2.40;;;;;;;;;;4917414;29;20641;-79
2024/02/13 12:29:29;;;;;;;5.10;2.30;;;;;;;;;;4918804;29;20200;-79
2024/02/13 12:32:00;;;;;;;6.73;2.60;;;;;;;;;;4919052;29;20636;-77
2024/02/13 12:34:29;;;;;;;6.40;2.63;;;;;;;;;;4918969;29;20231;-79
2024/02/13 12:37:01;;;;;;;3.97;2.40;;;;;;;;;;4918806;29;20204;-79
2024/02/13 12:39:30;;;;;;;5.90;2.27;;;;;;;;;;4919128;29;20200;-78
2024/02/13 12:41:58;;;;;;;5.83;2.20;;;;;;;;;;4918871;29;20199;-79
2024/02/13 12:44:26;;;;;;;5.70;2.10;;;;;;;;;;4918512;29;20292;-79
2024/02/13 12:46:53;;;;;;;7.83;2.27;;;;;;;;;;4918685;29;20256;-78
2024/02/13 12:49:21;;;;;;;4.00;1.90;;;;;;;;;;4918302;29;20645;-79
2024/02/13 12:51:48;;;;;;;7.03;2.33;;;;;;;;;;4918636;29;20232;-79
2024/02/13 12:54:18;;;;;;;3.90;2.10;;;;;;;;;;4918676;29;20232;-79
2024/02/13 12:56:46;;;;;;;5.30;2.10;;;;;;;;;;4918622;29;20299;-79
2024/02/13 12:59:13;;;;;;;4.73;2.20;;;;;;;;;;4918135;29;20200;-78
2024/02/13 13:01:44;;;;;;;9.63;2.90;;;;;;;;;;4918645;29;20299;-79
2024/02/13 13:04:14;;;;;;;6.63;2.70;;;;;;;;;;4918443;29;20272;-78
2024/02/13 13:06:42;;;;;;;5.93;2.40;;;;;;;;;;4918261;29;20256;-79
2024/02/13 13:09:09;;;;;;;5.20;2.00;;;;;;;;;;4918438;29;20549;-78
2024/02/13 13:11:38;;;;;;;4.00;2.30;;;;;;;;;;4917915;29;20287;-80
2024/02/13 13:14:06;;;;;;;6.17;2.33;;;;;;;;;;4918602;29;20205;-78
2024/02/13 13:16:35;;;;;;;5.20;2.30;;;;;;;;;;4918148;29;20200;-77
2024/02/13 13:19:03;;;;;;;7.80;2.60;;;;;;;;;;4917946;29;20237;-79
2024/02/13 13:21:30;;;;;;;5.73;2.30;;;;;;;;;;4918065;29;20205;-79
2024/02/13 13:23:58;;;;;;;6.97;2.47;;;;;;;;;;4917845;29;20243;-79
2024/02/13 13:26:32;;;;;;;7.17;2.57;;;;;;;;;;4918010;29;20244;-78
2024/02/13 13:29:03;;;;;;;5.83;2.53;;;;;;;;;;4918188;29;20287;-79
2024/02/13 13:31:31;;;;;;;7.87;2.50;;;;;;;;;;4917866;29;20284;-79
2024/02/13 13:33:58;;;;;;;3.67;2.40;;;;;;;;;;4917906;29;20647;-79
2024/02/13 13:36:25;;;;;;;6.70;2.50;;;;;;;;;;4917613;29;20263;-79
2024/02/13 13:38:53;;;;;;;5.37;2.27;;;;;;;;;;4917600;29;20287;-79
2024/02/13 13:41:20;;;;;;;6.17;2.83;;;;;;;;;;4917361;29;20197;-78
2024/02/13 13:43:48;;;;;;;5.30;2.57;;;;;;;;;;4917912;29;20200;-79
2024/02/13 13:46:17;;;;;;;5.20;2.57;;;;;;;;;;4917631;29;20219;-79
2024/02/13 13:48:44;;;;;;;5.43;2.50;;;;;;;;;;4917786;29;20295;-78
2024/02/13 13:51:12;;;;;;;4.40;2.80;;;;;;;;;;4918042;29;20200;-79
2024/02/13 13:53:40;;;;;;;6.30;2.70;;;;;;;;;;4917572;29;20197;-79
2024/02/13 13:56:08;;;;;;;3.70;2.27;;;;;;;;;;4917248;29;20255;-79
2024/02/13 13:58:35;;;;;;;4.40;2.60;;;;;;;;;;4917516;29;20206;-79
2024/02/13 14:01:03;;;;;;;5.37;2.67;;;;;;;;;;4917514;29;20232;-79
2024/02/13 14:03:33;;;;;;;6.07;2.47;;;;;;;;;;4917613;29;20647;-79
2024/02/13 14:06:00;;;;;;;6.70;2.80;;;;;;;;;;4917273;29;20631;-78
2024/02/13 14:08:28;;;;;;;5.63;2.30;;;;;;;;;;4917000;29;20378;-79
2024/02/13 14:10:56;;;;;;;3.97;2.20;;;;;;;;;;4917204;29;20201;-78
2024/02/13 14:13:24;;;;;;;6.57;2.30;;;;;;;;;;4917369;29;20260;-79
2024/02/13 14:15:52;;;;;;;4.33;2.70;;;;;;;;;;4917171;29;20706;-79
2024/02/13 14:18:20;;;;;;;5.17;2.57;;;;;;;;;;4917112;29;20738;-78
2024/02/13 14:20:48;;;;;;;6.80;2.40;;;;;;;;;;4917438;29;20204;-78
2024/02/13 14:23:20;;;;;;;5.37;2.37;;;;;;;;;;4917275;29;20275;-79
2024/02/13 14:25:47;;;;;;;4.83;2.37;;;;;;;;;;4916474;29;20619;-79
2024/02/13 14:28:14;;;;;;;8.70;3.10;;;;;;;;;;4917079;29;20284;-78
2024/02/13 14:30:42;;;;;;;5.30;2.97;;;;;;;;;;4916579;29;20709;-80
2024/02/13 14:33:10;;;;;;;5.07;2.70;;;;;;;;;;4917272;29;20674;-79
2024/02/13 14:35:37;;;;;;;5.50;3.10;;;;;;;;;;4916570;29;20732;-79
2024/02/13 14:38:07;;;;;;;5.33;3.30;;;;;;;;;;4916632;29;20299;-79
2024/02/13 14:40:37;;;;;;;6.37;3.27;;;;;;;;;;4916650;29;20708;-79
2024/02/13 14:43:06;;;;;;;5.33;3.23;;;;;;;;;;4916854;29;20259;-79
2024/02/13 14:45:34;;;;;;;5.50;3.30;;;;;;;;;;4916790;29;20231;-79
2024/02/13 14:48:02;;;;;;;5.50;3.17;;;;;;;;;;4916465;29;20208;-79